Huvudsida
METAR-TAF:

METAR-TAF

Flygplatser :

Ronneby Airport

Ronneby, Sverige

latitud: 56-16N, longitud: 015-17E, höjd: 58 m

Aktuellt väderrapport

Denna rapport gjordes för 36 minuter sedan, klockan 20:20 UTC
Vind 17 kt från ost/nordost
Temperatur 0°C
Fuktighet 93%
Tryck 1026 hPa
Sikt: 8000 m
Spridda moln på en höjd av 700 ft
Brutna moln på en höjd av 1000 ft
lätt snö

METAR: ESDF 212020Z 07017KT 8000 -SN SCT007 BKN010 M00/M01 Q1026

Tid: 21:56 (20:56 UTC)

Väderprognos

Denna rapport gjordes för 3 timmar och 26 minuter sedan, klockan 17:30 UTC
Prognos gäller från 21 kl. 18 UTC till 21 kl. 23 UTC
Vind 8 kt från ost
Sikt: 6000 m
Brutna moln på en höjd av 800 ft
lätt snö
Sannolikhet 40%
från 21 kl. 18 UTC till 21 kl. 19 UTC
Sikt: 2000 m
Brutna moln på en höjd av 200 ft
lätt snö
Blir
från 21 kl. 19 UTC till 21 kl. 21 UTC
Sikt 10 km eller mer
Brutna moln på en höjd av 2700 ft

TAF: ESDF 211730Z 2118/2123 08008KT 6000 -SN BKN008 PROB40 2118/2119 2000 -SN BKN002 BECMG 2119/2121 9999 NSW BKN027

Aktuella väderrapporter och prognoser från 4000 flygplatser (METAR- och TAF-rapporter).

De tillgängliga stationerna syns som gula och röda prickar på kartan.

För musen över prickarna för att se namnen på stationerna.

Klicka sedan för att få väderrapporter och prognoser.

För att ändra kartan: Klicka på de gröna knapparna med ett svart kors på för att zooma in; den gröna knappen med ett streck på för att zooma ut; eller på de gröna pilarna för angränsande kartor.


METAR-TAF: